Alto, Michigan
Current Conditions -  °F | °C
As of 10:53 PM on Wednesday 28 Jan 2015 (Local Time) from KGRR Reporting Station
Overcast Overcast  
Wind Chill: -9°   Ceiling: 15000
Heat Index: -3°   Visibility: 10mi
Dew Point: -10°   Wind: 12mph
Humidity: 58%   Direction: 140°SE
Pressure: 30.01"   Gusts: NA
Location:  42.86°N, 85.38°W
Report Text: KGRR 290353Z 14010KT 10SM FEW110 OVC150 M03/M10 A3001 RMK AO2 SLP172 T10281100
Loading
Personal Weather Stations






























Interactive Weather Map New forecast layout! Learn more

10-Day Weather Forecast

Advertisements
Track Severe Weather on mobile